Schneifelwetter: Wetterstation Hallschlag, 537 m . NN
Wetterdaten: Sonntag, 28.08.2011
Datum Zeit Temp. A. Feuchte A. Luftdruck Regen Wind Richtung Richtung Sonnenschein Helligkeit T Regen Taupunkt Windchill
28.08.2011 00:01 9,5 C 94 % 1017 hPa 0,0 l/m 25,6 km/h (4 Bft) SW67.5 230 0 min 0 lux 0 min 8,6 C 1,0 C
28.08.2011 00:16 9,6 C 94 % 1017 hPa 0,0 l/m 16,4 km/h (3 Bft) SW45 235 0 min 0 lux 0 min 8,7 C 4,1 C
28.08.2011 00:30 9,6 C 94 % 1016 hPa 0,0 l/m 21,0 km/h (4 Bft) SW45 225 0 min 0 lux 0 min 8,7 C 2,4 C
28.08.2011 00:45 9,5 C 94 % 1017 hPa 0,0 l/m 18,1 km/h (3 Bft) SW45 230 0 min 0 lux 0 min 8,6 C 3,3 C
28.08.2011 01:00 9,6 C 95 % 1017 hPa 0,0 l/m 17,8 km/h (3 Bft) W-SW22.5 240 0 min 0 lux 0 min 8,8 C 3,5 C
28.08.2011 01:15 9,7 C 95 % 1017 hPa 0,3 l/m 22,3 km/h (4 Bft) W-SW22.5 245 0 min 0 lux 15 min 8,9 C 2,2 C
28.08.2011 01:30 9,7 C 95 % 1017 hPa 0,0 l/m 23,3 km/h (4 Bft) W-SW45 255 0 min 0 lux 0 min 8,9 C 1,9 C
28.08.2011 01:45 9,6 C 95 % 1017 hPa 0,0 l/m 27,3 km/h (4 Bft) W-SW45 255 0 min 0 lux 0 min 8,8 C 0,7 C
28.08.2011 02:00 9,5 C 95 % 1017 hPa 0,0 l/m 24,4 km/h (4 Bft) W-SW22.5 255 0 min 0 lux 0 min 8,7 C 1,3 C
28.08.2011 02:15 9,3 C 95 % 1017 hPa 0,0 l/m 29,1 km/h (5 Bft) W-SW22.5 255 0 min 0 lux 0 min 8,5 C -0,1 C
28.08.2011 02:30 9,2 C 95 % 1017 hPa 0,0 l/m 22,1 km/h (4 Bft) W-SW45 250 0 min 0 lux 0 min 8,4 C 1,6 C
28.08.2011 02:45 9,3 C 95 % 1017 hPa 0,0 l/m 21,9 km/h (4 Bft) SW45 235 0 min 0 lux 0 min 8,5 C 1,8 C
28.08.2011 03:00 9,4 C 95 % 1017 hPa 0,0 l/m 24,8 km/h (4 Bft) W-SW67.5 250 0 min 0 lux 0 min 8,6 C 1,1 C
28.08.2011 03:15 9,4 C 95 % 1017 hPa 0,0 l/m 21,6 km/h (4 Bft) SW45 235 0 min 0 lux 0 min 8,6 C 2,0 C
28.08.2011 03:30 9,3 C 95 % 1017 hPa 0,0 l/m 22,8 km/h (4 Bft) W45 260 0 min 0 lux 0 min 8,5 C 1,5 C
28.08.2011 03:45 9,3 C 95 % 1017 hPa 0,0 l/m 22,4 km/h (4 Bft) W-SW45 245 0 min 0 lux 0 min 8,5 C 1,6 C
28.08.2011 04:00 9,3 C 95 % 1017 hPa 0,0 l/m 21,0 km/h (4 Bft) W-SW45 250 0 min 0 lux 0 min 8,5 C 2,1 C
28.08.2011 04:15 9,3 C 95 % 1017 hPa 0,0 l/m 22,5 km/h (4 Bft) W-SW22.5 255 0 min 0 lux 0 min 8,5 C 1,6 C
28.08.2011 04:30 9,3 C 95 % 1017 hPa 0,0 l/m 18,8 km/h (3 Bft) W-SW45 245 0 min 0 lux 0 min 8,5 C 2,8 C
28.08.2011 04:45 9,3 C 95 % 1017 hPa 0,0 l/m 23,3 km/h (4 Bft) SW22.5 225 0 min 0 lux 0 min 8,5 C 1,4 C
28.08.2011 05:00 9,3 C 95 % 1017 hPa 0,0 l/m 19,8 km/h (3 Bft) W-SW45 245 0 min 0 lux 0 min 8,5 C 2,5 C
28.08.2011 05:15 9,3 C 95 % 1017 hPa 0,0 l/m 23,3 km/h (4 Bft) W-SW45 240 0 min 0 lux 0 min 8,5 C 1,4 C
28.08.2011 05:30 9,4 C 95 % 1017 hPa 0,0 l/m 19,6 km/h (3 Bft) SW45 230 0 min 0 lux 0 min 8,6 C 2,6 C
28.08.2011 05:45 9,3 C 95 % 1017 hPa 0,0 l/m 23,3 km/h (4 Bft) W22.5 260 0 min 0 lux 0 min 8,5 C 1,4 C
28.08.2011 06:00 9,3 C 95 % 1017 hPa 0,0 l/m 16,8 km/h (3 Bft) W-SW22.5 245 0 min 0 lux 0 min 8,5 C 3,5 C
28.08.2011 06:15 9,3 C 95 % 1017 hPa 0,0 l/m 15,9 km/h (3 Bft) SW45 235 0 min 0 lux 0 min 8,5 C 3,9 C
28.08.2011 06:30 9,2 C 95 % 1016 hPa 0,0 l/m 27,2 km/h (4 Bft) SW45 225 0 min 53 lux 0 min 8,4 C 0,2 C
28.08.2011 06:45 9,2 C 95 % 1017 hPa 0,0 l/m 22,0 km/h (4 Bft) W-SW45 240 0 min 229 lux 0 min 8,4 C 1,6 C
28.08.2011 07:00 9,1 C 95 % 1017 hPa 0,0 l/m 29,0 km/h (5 Bft) SW67.5 235 0 min 684 lux 0 min 8,3 C -0,4 C
28.08.2011 07:15 9,2 C 95 % 1017 hPa 0,0 l/m 25,7 km/h (4 Bft) SW45 230 0 min 1,14 klux 0 min 8,4 C 0,6 C
28.08.2011 07:30 9,2 C 95 % 1017 hPa 0,0 l/m 25,1 km/h (4 Bft) W45 265 0 min 2,74 klux 0 min 8,4 C 0,7 C
28.08.2011 07:45 9,3 C 94 % 1016 hPa 0,0 l/m 27,5 km/h (4 Bft) W-SW22.5 255 0 min 3,41 klux 0 min 8,4 C 0,2 C
28.08.2011 08:00 9,4 C 94 % 1017 hPa 0,0 l/m 27,3 km/h (4 Bft) W-SW67.5 250 0 min 8,19 klux 0 min 8,5 C 0,4 C
28.08.2011 08:15 9,6 C 93 % 1017 hPa 0,0 l/m 22,6 km/h (4 Bft) SW45 230 0 min 9,8 klux 0 min 8,5 C 2,0 C
28.08.2011 08:30 9,9 C 93 % 1017 hPa 0,0 l/m 23,4 km/h (4 Bft) W-SW45 250 0 min 13,7 klux 0 min 8,8 C 2,1 C
28.08.2011 08:45 10,3 C 92 % 1017 hPa 0,0 l/m 29,8 km/h (5 Bft) W-SW45 250 0 min 22,2 klux 0 min 9,1 C 1,1 C
28.08.2011 09:00 10,7 C 90 % 1017 hPa 0,0 l/m 30,3 km/h (5 Bft) W-SW67.5 245 0 min 22,5 klux 0 min 9,1 C 1,6 C
28.08.2011 09:15 11,0 C 89 % 1017 hPa 0,0 l/m 29,6 km/h (5 Bft) W-SW45 240 0 min 25,7 klux 0 min 9,3 C 2,1 C
28.08.2011 09:30 11,1 C 89 % 1017 hPa 0,0 l/m 29,3 km/h (5 Bft) W-SW45 240 0 min 26,9 klux 0 min 9,4 C 2,3 C
28.08.2011 09:45 11,4 C 88 % 1017 hPa 0,0 l/m 27,8 km/h (4 Bft) W-SW67.5 245 0 min 25,4 klux 0 min 9,5 C 3,1 C
28.08.2011 10:01 12,4 C 85 % 1017 hPa 0,0 l/m 36,8 km/h (5 Bft) W-SW45 250 16 min 64,7 klux 0 min 9,9 C 2,9 C
28.08.2011 10:16 13,4 C 81 % 1017 hPa 0,0 l/m 36,2 km/h (5 Bft) W67.5 260 15 min 76,1 klux 0 min 10,2 C 4,4 C
28.08.2011 10:30 13,2 C 81 % 1017 hPa 0,0 l/m 31,0 km/h (5 Bft) SW67.5 235 0 min 43,8 klux 0 min 10,0 C 5,0 C
28.08.2011 10:45 13,6 C 82 % 1017 hPa 0,0 l/m 37,3 km/h (5 Bft) W45 260 0 min 48,8 klux 0 min 10,6 C 4,6 C
28.08.2011 11:00 14,7 C 78 % 1017 hPa 0,0 l/m 30,5 km/h (5 Bft) W-SW22.5 245 15 min 78,4 klux 0 min 10,9 C 7,2 C
28.08.2011 11:15 15,2 C 73 % 1017 hPa 0,0 l/m 39,4 km/h (6 Bft) W-SW45 245 15 min 83,3 klux 0 min 10,4 C 6,7 C
28.08.2011 11:31 14,2 C 74 % 1017 hPa 0,0 l/m 34,7 km/h (5 Bft) W67.5 270 0 min 53,2 klux 0 min 9,6 C 5,8 C
28.08.2011 11:46 14,2 C 75 % 1017 hPa 0,0 l/m 33,1 km/h (5 Bft) W45 260 0 min 38,6 klux 0 min 9,8 C 6,1 C
28.08.2011 12:00 14,0 C 75 % 1017 hPa 0,0 l/m 32,8 km/h (5 Bft) W-SW22.5 255 0 min 35,3 klux 0 min 9,6 C 5,8 C
28.08.2011 12:15 14,5 C 73 % 1017 hPa 0,0 l/m 36,7 km/h (5 Bft) W45 260 15 min 72,9 klux 0 min 9,7 C 6,0 C
28.08.2011 12:30 14,5 C 74 % 1017 hPa 0,0 l/m 28,6 km/h (4 Bft) SW67.5 230 15 min 88,6 klux 0 min 9,9 C 7,2 C
28.08.2011 12:45 15,2 C 71 % 1017 hPa 0,0 l/m 40,1 km/h (6 Bft) W45 270 15 min 87,9 klux 0 min 10,0 C 6,6 C
28.08.2011 13:01 15,0 C 72 % 1017 hPa 0,0 l/m 30,8 km/h (5 Bft) S-SW67.5 210 16 min 68,2 klux 0 min 10,0 C 7,6 C
28.08.2011 13:16 14,8 C 71 % 1017 hPa 0,0 l/m 26,9 km/h (4 Bft) W45 260 0 min 22,2 klux 0 min 9,6 C 8,0 C
28.08.2011 13:30 14,8 C 71 % 1017 hPa 0,0 l/m 28,8 km/h (4 Bft) W-SW45 240 14 min 80,3 klux 0 min 9,6 C 7,6 C
28.08.2011 13:45 15,7 C 69 % 1017 hPa 0,0 l/m 32,7 km/h (5 Bft) W22.5 260 15 min 61,9 klux 0 min 10,0 C 8,3 C
28.08.2011 14:00 15,6 C 69 % 1017 hPa 0,0 l/m 39,2 km/h (6 Bft) W-SW45 255 15 min 87,5 klux 0 min 9,9 C 7,3 C
28.08.2011 14:15 15,8 C 67 % 1017 hPa 0,0 l/m 32,9 km/h (5 Bft) W22.5 260 0 min 58,9 klux 0 min 9,7 C 8,4 C
28.08.2011 14:31 15,8 C 68 % 1017 hPa 0,0 l/m 34,6 km/h (5 Bft) W-SW45 255 0 min 43,0 klux 0 min 9,9 C 8,1 C
28.08.2011 14:46 15,6 C 65 % 1017 hPa 0,0 l/m 32,7 km/h (5 Bft) W-SW45 240 0 min 34,6 klux 0 min 9,0 C 8,1 C
28.08.2011 15:00 15,5 C 67 % 1017 hPa 0,0 l/m 32,8 km/h (5 Bft) W-SW67.5 250 0 min 30,4 klux 0 min 9,4 C 8,0 C
28.08.2011 15:15 15,5 C 67 % 1017 hPa 0,0 l/m 30,7 km/h (5 Bft) SW45 235 0 min 54,9 klux 0 min 9,4 C 8,3 C
28.08.2011 15:30 15,8 C 66 % 1016 hPa 0,0 l/m 29,9 km/h (5 Bft) W22.5 260 0 min 59,4 klux 0 min 9,5 C 8,8 C
28.08.2011 15:45 15,7 C 66 % 1016 hPa 0,0 l/m 29,4 km/h (5 Bft) W22.5 260 15 min 71,5 klux 0 min 9,4 C 8,8 C
28.08.2011 16:01 16,0 C 64 % 1016 hPa 0,0 l/m 30,1 km/h (5 Bft) W-SW67.5 245 0 min 55,2 klux 0 min 9,2 C 9,1 C
28.08.2011 16:16 16,0 C 63 % 1016 hPa 0,0 l/m 36,3 km/h (5 Bft) W22.5 260 15 min 70,4 klux 0 min 9,0 C 8,2 C
28.08.2011 16:30 15,8 C 64 % 1016 hPa 0,0 l/m 24,5 km/h (4 Bft) W-SW45 245 14 min 75,4 klux 0 min 9,0 C 9,8 C
28.08.2011 16:45 15,6 C 65 % 1016 hPa 0,0 l/m 33,5 km/h (5 Bft) W-SW67.5 245 0 min 35,1 klux 0 min 9,0 C 8,0 C
28.08.2011 17:00 15,2 C 66 % 1016 hPa 0,0 l/m 30,0 km/h (5 Bft) W-SW45 250 0 min 54,8 klux 0 min 8,9 C 8,0 C
28.08.2011 17:15 15,1 C 67 % 1016 hPa 0,0 l/m 26,0 km/h (4 Bft) W45 270 0 min 26,7 klux 0 min 9,0 C 8,5 C
28.08.2011 17:31 14,7 C 67 % 1016 hPa 0,0 l/m 27,9 km/h (4 Bft) SW45 235 0 min 12,0 klux 0 min 8,6 C 7,6 C
28.08.2011 17:46 14,9 C 68 % 1016 hPa 0,0 l/m 32,9 km/h (5 Bft) SW67.5 235 0 min 58,8 klux 0 min 9,0 C 7,1 C
28.08.2011 18:00 15,4 C 67 % 1016 hPa 0,0 l/m 30,5 km/h (5 Bft) W-SW45 250 0 min 52,9 klux 0 min 9,3 C 8,2 C
28.08.2011 18:15 15,4 C 65 % 1016 hPa 0,0 l/m 32,7 km/h (5 Bft) W22.5 260 0 min 44,7 klux 0 min 8,9 C 7,8 C
28.08.2011 18:30 15,3 C 65 % 1016 hPa 0,0 l/m 28,5 km/h (4 Bft) W-SW67.5 245 0 min 39,0 klux 0 min 8,8 C 8,4 C
28.08.2011 18:45 15,0 C 65 % 1016 hPa 0,0 l/m 24,1 km/h (4 Bft) W45 260 0 min 36,9 klux 0 min 8,5 C 8,8 C
28.08.2011 19:01 14,3 C 67 % 1016 hPa 0,0 l/m 20,6 km/h (4 Bft) W-SW22.5 250 0 min 8,40 klux 0 min 8,3 C 8,7 C
28.08.2011 19:16 13,7 C 69 % 1016 hPa 0,0 l/m 19,5 km/h (3 Bft) W22.5 260 0 min 22,3 klux 0 min 8,1 C 8,2 C
28.08.2011 19:30 14,2 C 70 % 1016 hPa 0,0 l/m 17,5 km/h (3 Bft) W-SW22.5 250 0 min 23,4 klux 0 min 8,8 C 9,4 C
28.08.2011 19:45 14,0 C 69 % 1016 hPa 0,0 l/m 21,3 km/h (4 Bft) W22.5 260 0 min 16,3 klux 0 min 8,4 C 8,1 C
28.08.2011 20:00 13,1 C 70 % 1016 hPa 0,0 l/m 19,3 km/h (3 Bft) W-SW45 240 0 min 4,41 klux 0 min 7,8 C 7,5 C
28.08.2011 20:16 12,3 C 72 % 1016 hPa 0,0 l/m 8,3 km/h (2 Bft) SW 235 0 min 2,39 klux 0 min 7,4 C 11,1 C
28.08.2011 20:31 11,5 C 74 % 1016 hPa 0,0 l/m 7,2 km/h (2 Bft) SW 235 0 min 1,18 klux 0 min 7,0 C 11,0 C
28.08.2011 20:45 10,9 C 76 % 1016 hPa 0,0 l/m 7,2 km/h (2 Bft) SW 235 0 min 287 lux 0 min 6,8 C 10,3 C
28.08.2011 21:00 10,6 C 77 % 1016 hPa 0,0 l/m 3,9 km/h (1 Bft) SW 235 0 min 38 lux 0 min 6,7 C 10,6 C
28.08.2011 21:15 10,6 C 79 % 1016 hPa 0,0 l/m 3,7 km/h (1 Bft) SW 235 0 min 3 lux 0 min 7,1 C 10,6 C
28.08.2011 21:30 10,8 C 80 % 1016 hPa 0,0 l/m 4,6 km/h (1 Bft) W-SW 240 0 min 0 lux 0 min 7,5 C 10,8 C
28.08.2011 21:46 11,1 C 80 % 1016 hPa 0,0 l/m 10,9 km/h (2 Bft) SW 235 0 min 0 lux 0 min 7,8 C 8,3 C
28.08.2011 22:01 11,2 C 80 % 1016 hPa 0,0 l/m 7,4 km/h (2 Bft) SW 230 0 min 0 lux 0 min 7,9 C 10,5 C
28.08.2011 22:15 10,9 C 80 % 1016 hPa 0,0 l/m 0,5 km/h (0 Bft) SW 230 0 min 0 lux 0 min 7,6 C 10,9 C
28.08.2011 22:30 10,8 C 81 % 1017 hPa 0,0 l/m 12,1 km/h (2 Bft) SW22.5 235 0 min 0 lux 0 min 7,7 C 7,4 C
28.08.2011 22:45 10,8 C 82 % 1017 hPa 0,0 l/m 10,5 km/h (2 Bft) W-SW 250 0 min 0 lux 0 min 7,9 C 8,2 C
28.08.2011 23:00 10,7 C 82 % 1017 hPa 0,0 l/m 6,5 km/h (2 Bft) W-SW 250 0 min 0 lux 0 min 7,8 C 10,7 C
28.08.2011 23:16 10,4 C 82 % 1017 hPa 0,0 l/m 0,0 km/h (0 Bft) W-SW 250 0 min 0 lux 0 min 7,5 C 10,4 C
28.08.2011 23:31 10,3 C 83 % 1017 hPa 0,0 l/m 0,3 km/h (0 Bft) W-SW 250 0 min 0 lux 0 min 7,5 C 10,3 C
28.08.2011 23:45 10,4 C 84 % 1016 hPa 0,0 l/m 1,3 km/h (1 Bft) W-SW 250 0 min 0 lux 0 min 7,8 C 10,4 C
28.08.2011 23:54 10,4 C 84 % 1016 hPa 0,0 l/m 9,2 km/h (2 Bft) S 170 0 min 0 lux 0 min 7,8 C 8,5 C
_ Min-Zeit 07:00 16:16 00:30 - 23:16 - - - - - 21:00 07:00
Minimum _ 9,1 C 63 % 1016 hPa - 0,0 km/h (0 Bft) - - - - - 6,7 C -0,4 C
_ Max-Zeit 16:01 01:00 00:01 01:15 12:45 - - 10:01 12:30 01:15 11:00 20:16
Maximum _ 16,0 C 95 % 1017 hPa 0,3 l/m 40,1 km/h
W (6 Bft)
- - 16 min 88,6 klux 15 min 10,9 C 11,1 C
Durchschnitt _ 12,0 C 81 % 1017 hPa #0,3 l/m 23,7 km/h (4 Bft) W-SW - #3:30 h 23,5 klux #15 min. 8,8 C 5,6 C